createdAt,value
2022-08-11T00:02:29.469Z,100.00
2022-08-11T00:04:58.659Z,100.00
2022-08-11T00:07:27.946Z,100.00
2022-08-11T00:09:57.127Z,100.00
2022-08-11T00:12:25.748Z,100.00
2022-08-11T00:14:59.876Z,100.00
2022-08-11T00:17:30.815Z,100.00
2022-08-11T00:20:14.883Z,100.00
2022-08-11T00:22:46.413Z,100.00
2022-08-11T00:25:18.182Z,100.00
2022-08-11T00:27:48.474Z,100.00
2022-08-11T00:30:18.399Z,100.00
2022-08-11T00:32:55.209Z,100.00
2022-08-11T00:35:52.127Z,100.00
2022-08-11T00:38:16.642Z,100.00
2022-08-11T00:40:48.405Z,100.00
2022-08-11T00:43:22.195Z,100.00
2022-08-11T00:46:12.210Z,100.00
2022-08-11T00:48:46.775Z,100.00
2022-08-11T00:51:24.672Z,100.00
2022-08-11T00:54:01.921Z,100.00
2022-08-11T00:56:58.194Z,100.00
2022-08-11T00:59:58.831Z,100.00
2022-08-11T01:02:49.526Z,100.00
2022-08-11T01:05:51.593Z,100.00
2022-08-11T01:08:48.140Z,100.00
2022-08-11T01:11:27.077Z,100.00
2022-08-11T01:14:37.762Z,100.00
2022-08-11T01:17:14.284Z,100.00
2022-08-11T01:20:45.417Z,100.00
2022-08-11T01:23:12.686Z,100.00
2022-08-11T01:26:28.234Z,100.00
2022-08-11T01:29:06.474Z,100.00
2022-08-11T01:32:06.439Z,100.00
2022-08-11T01:35:19.180Z,100.00
2022-08-11T01:38:22.200Z,100.00
2022-08-11T01:41:48.772Z,100.00
2022-08-11T01:44:41.605Z,100.00
2022-08-11T01:47:52.601Z,100.00
2022-08-11T01:50:38.548Z,100.00
2022-08-11T01:53:14.202Z,100.00
2022-08-11T01:55:55.171Z,100.00
2022-08-11T01:58:43.571Z,100.00
2022-08-11T02:01:25.573Z,100.00
2022-08-11T02:03:58.338Z,100.00
2022-08-11T02:06:46.943Z,100.00
2022-08-11T02:09:21.920Z,100.00
2022-08-11T02:11:50.779Z,100.00
2022-08-11T02:14:25.971Z,100.00
2022-08-11T02:17:01.723Z,100.00
2022-08-11T02:19:57.318Z,100.00
2022-08-11T02:22:50.021Z,100.00
2022-08-11T02:25:25.767Z,100.00
2022-08-11T02:28:00.789Z,100.00
2022-08-11T02:30:33.741Z,100.00
2022-08-11T02:33:24.885Z,100.00
2022-08-11T02:36:00.261Z,100.00
2022-08-11T02:38:33.733Z,100.00
2022-08-11T02:41:30.504Z,100.00
2022-08-11T02:44:25.682Z,100.00
2022-08-11T02:47:04.121Z,100.00
2022-08-11T02:50:02.507Z,100.00
2022-08-11T02:52:45.478Z,100.00
2022-08-11T02:55:48.924Z,100.00
2022-08-11T02:58:15.959Z,100.00
2022-08-11T03:00:48.769Z,100.00
2022-08-11T03:03:22.258Z,100.00
2022-08-11T03:05:57.818Z,100.00
2022-08-11T03:08:42.199Z,100.00
2022-08-11T03:11:34.023Z,100.00
2022-08-11T03:14:31.647Z,100.00
2022-08-11T03:17:05.754Z,100.00
2022-08-11T03:19:46.857Z,100.00
2022-08-11T03:22:22.095Z,100.00
2022-08-11T03:25:02.542Z,100.00
2022-08-11T03:27:40.686Z,100.00
2022-08-11T03:30:14.104Z,100.00
2022-08-11T03:33:11.339Z,100.00
2022-08-11T03:35:43.138Z,100.00
2022-08-11T03:38:14.353Z,100.00
2022-08-11T03:42:01.319Z,100.00
2022-08-11T03:44:08.036Z,100.00
2022-08-11T03:46:45.336Z,100.00
2022-08-11T03:49:26.851Z,100.00
2022-08-11T03:51:58.486Z,100.00
2022-08-11T03:54:32.964Z,100.00
2022-08-11T03:57:43.548Z,100.00
2022-08-11T04:00:23.405Z,100.00
2022-08-11T04:03:21.176Z,100.00
2022-08-11T04:06:15.042Z,100.00
2022-08-11T04:09:15.108Z,100.00
2022-08-11T04:12:06.550Z,100.00
2022-08-11T04:15:02.080Z,100.00
2022-08-11T04:17:52.532Z,100.00
2022-08-11T04:20:33.699Z,100.00
2022-08-11T04:24:36.797Z,100.00
2022-08-11T04:27:37.195Z,100.00
2022-08-11T04:30:12.187Z,100.00
2022-08-11T04:33:17.807Z,100.00
2022-08-11T04:35:55.088Z,100.00
2022-08-11T04:38:54.550Z,98.03
2022-08-11T04:42:01.095Z,93.68
2022-08-11T04:45:11.962Z,78.41
2022-08-11T04:48:17.405Z,71.30
2022-08-11T04:51:17.784Z,67.44
2022-08-11T04:54:10.933Z,70.06
2022-08-11T04:56:58.959Z,62.14
2022-08-11T05:00:10.158Z,56.94
2022-08-11T05:03:15.750Z,57.48
2022-08-11T05:06:09.021Z,54.93
2022-08-11T05:09:02.446Z,53.59
2022-08-11T05:12:03.674Z,54.75
2022-08-11T05:14:52.432Z,55.96
2022-08-11T05:17:56.682Z,56.50
2022-08-11T05:20:44.637Z,61.21
2022-08-11T05:23:31.861Z,58.03
2022-08-11T05:26:46.877Z,56.96
2022-08-11T05:29:46.435Z,57.36
2022-08-11T05:32:34.558Z,58.94
2022-08-11T05:35:05.222Z,61.69
2022-08-11T05:37:38.112Z,62.65
2022-08-11T05:40:30.713Z,58.18
2022-08-11T05:43:19.210Z,60.87
2022-08-11T05:46:15.036Z,70.94
2022-08-11T05:49:01.996Z,68.16
2022-08-11T05:51:55.311Z,73.17
2022-08-11T05:54:42.318Z,81.87
2022-08-11T05:57:48.807Z,80.75
2022-08-11T06:00:10.391Z,82.23
2022-08-11T06:02:41.556Z,85.15
2022-08-11T06:05:10.570Z,84.06
2022-08-11T06:07:49.220Z,87.95
2022-08-11T06:10:31.023Z,86.05
2022-08-11T06:13:02.060Z,84.31
2022-08-11T06:15:32.874Z,90.55
2022-08-11T06:18:02.930Z,88.16
2022-08-11T06:20:36.567Z,86.80
2022-08-11T06:23:07.399Z,84.91
2022-08-11T06:25:37.337Z,83.89
2022-08-11T06:28:08.537Z,80.62
2022-08-11T06:30:40.724Z,82.65
2022-08-11T06:33:11.106Z,78.97
2022-08-11T06:35:40.577Z,79.97
2022-08-11T06:38:11.993Z,77.44
2022-08-11T06:41:08.314Z,70.83
2022-08-11T06:43:55.374Z,70.81
2022-08-11T06:46:28.636Z,71.63
2022-08-11T06:48:57.176Z,66.49
2022-08-11T06:51:24.811Z,66.48
2022-08-11T06:54:04.575Z,66.08
2022-08-11T06:57:18.635Z,66.41
2022-08-11T07:00:02.428Z,66.63
2022-08-11T07:02:34.554Z,64.76
2022-08-11T07:05:08.354Z,59.43
2022-08-11T07:08:35.787Z,59.42
2022-08-11T07:11:41.430Z,58.71
2022-08-11T07:14:27.396Z,58.48
2022-08-11T07:16:57.585Z,58.86
2022-08-11T07:19:47.022Z,57.60
2022-08-11T07:22:33.766Z,57.17
2022-08-11T07:25:21.246Z,56.83
2022-08-11T07:28:10.606Z,55.93
2022-08-11T07:30:41.881Z,52.97
2022-08-11T07:34:05.731Z,52.03
2022-08-11T07:36:05.135Z,51.12
2022-08-11T07:38:47.428Z,51.77
2022-08-11T07:41:17.733Z,51.71
2022-08-11T07:43:49.196Z,52.21
2022-08-11T07:46:36.056Z,52.06
2022-08-11T07:49:26.176Z,51.85
2022-08-11T07:52:12.638Z,50.62
2022-08-11T07:54:41.991Z,49.78
2022-08-11T07:58:14.667Z,48.65
2022-08-11T08:00:37.382Z,49.77
2022-08-11T08:03:24.496Z,50.63
2022-08-11T08:06:15.362Z,49.82
2022-08-11T08:09:17.573Z,48.62
2022-08-11T08:12:03.861Z,48.49
2022-08-11T08:14:50.618Z,48.13
2022-08-11T08:17:37.274Z,47.08
2022-08-11T08:20:07.888Z,47.31
2022-08-11T08:22:39.748Z,47.85
2022-08-11T08:25:10.602Z,46.96
2022-08-11T08:27:39.453Z,45.49
2022-08-11T08:30:26.291Z,45.93
2022-08-11T08:32:57.670Z,45.74
2022-08-11T08:35:30.654Z,44.66
2022-08-11T08:38:02.305Z,43.62
2022-08-11T08:40:31.031Z,44.35
2022-08-11T08:43:05.118Z,43.71
2022-08-11T08:45:37.735Z,43.19
2022-08-11T08:48:10.333Z,43.30
2022-08-11T08:51:01.785Z,43.79
2022-08-11T08:53:35.245Z,43.71
2022-08-11T08:56:04.461Z,42.95
2022-08-11T08:58:34.721Z,43.41
2022-08-11T09:01:02.845Z,42.63
2022-08-11T09:04:07.108Z,43.25
2022-08-11T09:06:20.651Z,42.47
2022-08-11T09:08:53.652Z,41.18
2022-08-11T09:11:41.581Z,41.78
2022-08-11T09:14:14.942Z,41.17
2022-08-11T09:16:44.290Z,41.34
2022-08-11T09:19:17.675Z,41.15
2022-08-11T09:22:08.386Z,41.37
2022-08-11T09:24:56.390Z,41.45
2022-08-11T09:27:25.299Z,40.02
2022-08-11T09:29:54.205Z,40.65
2022-08-11T09:32:23.220Z,39.71
2022-08-11T09:34:54.089Z,39.72
2022-08-11T09:37:54.069Z,38.63
2022-08-11T09:40:32.375Z,38.92
2022-08-11T09:43:21.663Z,38.12
2022-08-11T09:45:51.898Z,38.53
2022-08-11T09:48:20.845Z,38.06
2022-08-11T09:50:52.631Z,37.60
2022-08-11T09:53:36.642Z,37.78
2022-08-11T09:56:30.128Z,37.94
2022-08-11T09:58:59.506Z,36.78
2022-08-11T10:01:31.705Z,36.90
2022-08-11T10:04:02.895Z,36.35
2022-08-11T10:06:54.502Z,36.54
2022-08-11T10:09:25.675Z,36.25
2022-08-11T10:11:57.929Z,36.78
2022-08-11T10:14:45.270Z,36.35
2022-08-11T10:17:14.930Z,36.20
2022-08-11T10:20:01.958Z,35.94
2022-08-11T10:22:52.936Z,36.02
2022-08-11T10:25:39.315Z,35.53
2022-08-11T10:28:32.973Z,35.32
2022-08-11T10:31:16.973Z,35.17
2022-08-11T10:34:01.915Z,35.33
2022-08-11T10:36:31.820Z,35.66
2022-08-11T10:39:01.710Z,35.73
2022-08-11T10:42:06.804Z,34.69
2022-08-11T10:44:40.141Z,35.09
2022-08-11T10:47:26.687Z,34.64
2022-08-11T10:50:09.626Z,34.75
2022-08-11T10:52:56.408Z,35.29
2022-08-11T10:55:42.912Z,35.15
2022-08-11T10:58:29.275Z,34.80
2022-08-11T11:01:00.695Z,33.65
2022-08-11T11:03:32.174Z,33.60
2022-08-11T11:06:28.728Z,34.36
2022-08-11T11:09:03.762Z,33.69
2022-08-11T11:11:54.092Z,33.73
2022-08-11T11:14:46.161Z,34.34
2022-08-11T11:17:44.190Z,33.76
2022-08-11T11:20:35.806Z,33.02
2022-08-11T11:23:06.429Z,33.59
2022-08-11T11:25:40.380Z,34.07
2022-08-11T11:28:34.617Z,34.04
2022-08-11T11:31:15.784Z,33.22
2022-08-11T11:34:12.186Z,33.58
2022-08-11T11:36:47.059Z,32.94
2022-08-11T11:39:19.309Z,32.83
2022-08-11T11:41:48.453Z,32.67
2022-08-11T11:44:17.103Z,32.74
2022-08-11T11:46:46.673Z,32.91
2022-08-11T11:49:18.606Z,32.77
2022-08-11T11:51:50.279Z,32.50
2022-08-11T11:54:19.076Z,31.59
2022-08-11T11:56:47.440Z,32.34
2022-08-11T11:59:34.005Z,32.50
2022-08-11T12:02:11.841Z,32.11
2022-08-11T12:04:45.188Z,31.48
2022-08-11T12:07:30.998Z,31.25
2022-08-11T12:09:59.706Z,32.43
2022-08-11T12:12:45.492Z,31.70
2022-08-11T12:15:13.935Z,31.71
2022-08-11T12:17:42.305Z,31.52
2022-08-11T12:20:31.954Z,31.30
2022-08-11T12:23:16.507Z,31.39
2022-08-11T12:26:26.431Z,31.79
2022-08-11T12:28:51.895Z,30.76
2022-08-11T12:31:25.982Z,31.18
2022-08-11T12:33:56.154Z,31.03
2022-08-11T12:36:25.656Z,31.04
2022-08-11T12:38:55.090Z,30.52
2022-08-11T12:41:42.067Z,30.80
2022-08-11T12:44:28.620Z,30.67
2022-08-11T12:46:58.998Z,29.96
2022-08-11T12:49:47.366Z,30.54
2022-08-11T12:52:21.658Z,30.71
2022-08-11T12:54:58.954Z,29.93
2022-08-11T12:57:49.655Z,29.20
2022-08-11T13:00:36.446Z,29.23
2022-08-11T13:03:24.519Z,29.71
2022-08-11T13:05:55.713Z,28.68
2022-08-11T13:08:26.677Z,29.05
2022-08-11T13:11:15.124Z,29.82
2022-08-11T13:13:54.066Z,30.39
2022-08-11T13:16:27.789Z,29.60
2022-08-11T13:18:56.904Z,27.99
2022-08-11T13:21:25.519Z,28.06
2022-08-11T13:24:01.691Z,27.92
2022-08-11T13:26:46.645Z,28.36
2022-08-11T13:29:20.625Z,28.91
2022-08-11T13:31:49.600Z,28.67
2022-08-11T13:34:18.485Z,27.86
2022-08-11T13:36:50.053Z,28.46
2022-08-11T13:39:19.579Z,28.53
2022-08-11T13:41:49.671Z,28.12
2022-08-11T13:44:24.734Z,28.07
2022-08-11T13:46:55.278Z,28.37
2022-08-11T13:49:24.056Z,27.53
2022-08-11T13:51:52.844Z,28.38
2022-08-11T13:54:24.662Z,28.06
2022-08-11T13:56:55.349Z,28.04
2022-08-11T13:59:29.869Z,27.78
2022-08-11T14:02:22.052Z,27.55
2022-08-11T14:04:55.445Z,27.15
2022-08-11T14:07:25.884Z,26.56
2022-08-11T14:09:58.958Z,27.41
2022-08-11T14:12:46.663Z,28.41
2022-08-11T14:15:19.993Z,28.41
2022-08-11T14:17:52.254Z,28.50
2022-08-11T14:20:38.296Z,27.71
2022-08-11T14:23:11.021Z,27.83
2022-08-11T14:26:03.759Z,27.49
2022-08-11T14:28:40.298Z,27.66
2022-08-11T14:31:14.711Z,27.58
2022-08-11T14:34:00.409Z,27.77
2022-08-11T14:36:34.022Z,28.43
2022-08-11T14:39:05.425Z,27.46
2022-08-11T14:42:10.151Z,27.88
2022-08-11T14:45:00.889Z,27.89
2022-08-11T14:47:29.470Z,27.00
2022-08-11T14:50:10.253Z,27.23
2022-08-11T14:52:45.743Z,27.26
2022-08-11T14:55:32.068Z,27.50
2022-08-11T14:58:02.448Z,28.01
2022-08-11T15:00:31.572Z,28.35
2022-08-11T15:03:12.080Z,27.94
2022-08-11T15:05:52.333Z,27.43
2022-08-11T15:08:46.642Z,27.35
2022-08-11T15:11:34.193Z,28.15
2022-08-11T15:14:06.494Z,28.86
2022-08-11T15:16:52.793Z,27.94
2022-08-11T15:19:22.099Z,27.79
2022-08-11T15:22:08.123Z,28.11
2022-08-11T15:24:37.363Z,28.30
2022-08-11T15:27:24.792Z,28.30
2022-08-11T15:30:20.935Z,27.78
2022-08-11T15:33:20.618Z,28.41
2022-08-11T15:36:06.495Z,28.17
2022-08-11T15:38:37.082Z,27.93
2022-08-11T15:41:23.936Z,28.82
2022-08-11T15:44:12.039Z,29.08
2022-08-11T15:46:43.850Z,28.83
2022-08-11T15:49:13.755Z,29.04
2022-08-11T15:51:54.399Z,28.92
2022-08-11T15:54:27.216Z,29.11
2022-08-11T15:56:57.478Z,29.46
2022-08-11T15:59:44.348Z,29.44
2022-08-11T16:02:34.041Z,29.50
2022-08-11T16:05:05.288Z,30.00
2022-08-11T16:07:36.932Z,29.04
2022-08-11T16:10:14.813Z,28.99
2022-08-11T16:13:18.132Z,29.08
2022-08-11T16:16:06.518Z,28.71
2022-08-11T16:18:43.018Z,28.46
2022-08-11T16:21:34.219Z,29.24
2022-08-11T16:24:06.139Z,28.31
2022-08-11T16:27:10.281Z,28.29
2022-08-11T16:29:28.160Z,28.08
2022-08-11T16:32:15.040Z,28.42
2022-08-11T16:35:03.586Z,28.76
2022-08-11T16:37:52.102Z,27.98
2022-08-11T16:40:22.688Z,28.43
2022-08-11T16:43:11.561Z,28.13
2022-08-11T16:45:58.882Z,27.41
2022-08-11T16:48:34.961Z,27.60
2022-08-11T16:51:08.295Z,27.41
2022-08-11T16:53:54.854Z,27.54
2022-08-11T16:56:33.933Z,28.47
2022-08-11T16:59:17.285Z,28.58
2022-08-11T17:01:53.011Z,28.59
2022-08-11T17:04:46.208Z,28.16
2022-08-11T17:07:41.690Z,28.25
2022-08-11T17:10:51.555Z,27.62
2022-08-11T17:13:26.851Z,27.50
2022-08-11T17:16:12.209Z,27.80
2022-08-11T17:18:51.624Z,27.19
2022-08-11T17:21:21.829Z,26.85
2022-08-11T17:23:55.069Z,26.89
2022-08-11T17:26:28.050Z,26.58
2022-08-11T17:29:00.573Z,27.10
2022-08-11T17:31:47.660Z,27.51
2022-08-11T17:34:34.086Z,26.71
2022-08-11T17:37:02.882Z,27.15
2022-08-11T17:39:33.036Z,27.05
2022-08-11T17:42:19.682Z,27.04
2022-08-11T17:45:06.737Z,27.37
2022-08-11T17:47:53.063Z,27.17
2022-08-11T17:50:22.452Z,27.52
2022-08-11T17:53:08.971Z,26.48
2022-08-11T17:55:58.197Z,27.59
2022-08-11T17:58:44.662Z,27.68
2022-08-11T18:01:13.808Z,27.81
2022-08-11T18:03:41.827Z,28.01
2022-08-11T18:06:22.520Z,27.77
2022-08-11T18:09:23.934Z,27.86
2022-08-11T18:12:13.150Z,29.15
2022-08-11T18:15:01.081Z,28.48
2022-08-11T18:17:47.874Z,28.75
2022-08-11T18:20:33.796Z,29.53
2022-08-11T18:23:46.546Z,31.02
2022-08-11T18:26:28.816Z,31.44
2022-08-11T18:29:16.358Z,32.08
2022-08-11T18:32:07.037Z,32.30
2022-08-11T18:34:56.567Z,32.99
2022-08-11T18:37:44.712Z,33.27
2022-08-11T18:40:35.158Z,33.63
2022-08-11T18:43:27.183Z,33.97
2022-08-11T18:46:18.489Z,34.58
2022-08-11T18:49:10.647Z,34.42
2022-08-11T18:52:00.209Z,35.19
2022-08-11T18:54:48.861Z,35.36
2022-08-11T18:57:49.887Z,35.08
2022-08-11T19:00:41.492Z,35.26
2022-08-11T19:03:30.377Z,35.52
2022-08-11T19:06:38.417Z,35.65
2022-08-11T19:09:27.427Z,35.61
2022-08-11T19:12:13.945Z,36.47
2022-08-11T19:15:00.434Z,36.80
2022-08-11T19:17:46.887Z,36.84
2022-08-11T19:20:36.815Z,36.44
2022-08-11T19:23:25.151Z,36.45
2022-08-11T19:26:12.020Z,36.79
2022-08-11T19:28:58.660Z,36.81
2022-08-11T19:31:45.810Z,36.89
2022-08-11T19:34:32.711Z,37.25
2022-08-11T19:37:24.427Z,38.22
2022-08-11T19:40:11.910Z,37.77
2022-08-11T19:42:59.327Z,38.00
2022-08-11T19:45:50.352Z,39.23
2022-08-11T19:48:39.284Z,38.58
2022-08-11T19:51:25.340Z,41.41
2022-08-11T19:54:13.148Z,42.87
2022-08-11T19:57:00.530Z,41.19
2022-08-11T19:59:47.203Z,42.02
2022-08-11T20:02:33.134Z,41.97
2022-08-11T20:05:19.004Z,42.92
2022-08-11T20:08:04.976Z,43.30
2022-08-11T20:10:53.678Z,43.47
2022-08-11T20:13:41.683Z,43.74
2022-08-11T20:16:30.152Z,44.09
2022-08-11T20:19:16.687Z,43.57
2022-08-11T20:22:07.916Z,44.25
2022-08-11T20:24:55.248Z,43.95
2022-08-11T20:27:44.131Z,43.94
2022-08-11T20:30:31.370Z,44.26
2022-08-11T20:33:17.518Z,44.16
2022-08-11T20:36:04.662Z,43.43
2022-08-11T20:38:51.738Z,43.67
2022-08-11T20:41:58.967Z,44.21
2022-08-11T20:44:45.994Z,44.86
2022-08-11T20:47:32.970Z,44.97
2022-08-11T20:50:41.013Z,45.69
2022-08-11T20:53:27.675Z,45.06
2022-08-11T20:56:14.124Z,46.35
2022-08-11T20:59:14.386Z,47.31
2022-08-11T21:02:10.012Z,47.91
2022-08-11T21:04:57.855Z,49.12
2022-08-11T21:07:55.187Z,50.69
2022-08-11T21:10:46.785Z,52.50
2022-08-11T21:13:33.386Z,54.23
2022-08-11T21:16:25.639Z,55.07
2022-08-11T21:19:18.262Z,55.67
2022-08-11T21:22:05.971Z,56.64
2022-08-11T21:24:53.079Z,58.77
2022-08-11T21:27:39.403Z,57.38
2022-08-11T21:30:26.520Z,56.73
2022-08-11T21:33:13.790Z,56.68
2022-08-11T21:36:02.613Z,58.42
2022-08-11T21:38:49.432Z,57.43
2022-08-11T21:41:35.883Z,56.66
2022-08-11T21:44:22.845Z,56.85
2022-08-11T21:47:09.061Z,57.55
2022-08-11T21:49:55.630Z,57.32
2022-08-11T21:52:43.339Z,57.19
2022-08-11T21:55:29.648Z,59.03
2022-08-11T21:58:16.274Z,60.96
2022-08-11T22:01:02.837Z,61.37
2022-08-11T22:03:50.349Z,63.74
2022-08-11T22:06:36.878Z,66.85
2022-08-11T22:09:24.134Z,67.09
2022-08-11T22:12:34.207Z,64.96
2022-08-11T22:15:15.710Z,64.38
2022-08-11T22:18:02.227Z,65.54
2022-08-11T22:20:48.654Z,67.07
2022-08-11T22:23:37.033Z,69.49
2022-08-11T22:26:25.018Z,73.85
2022-08-11T22:29:10.995Z,80.36
2022-08-11T22:31:57.778Z,79.69
2022-08-11T22:34:44.796Z,86.28
2022-08-11T22:37:39.689Z,86.73
2022-08-11T22:40:27.723Z,89.01
2022-08-11T22:43:15.399Z,90.59
2022-08-11T22:46:01.428Z,87.23
2022-08-11T22:48:48.889Z,85.52
2022-08-11T22:51:37.005Z,82.80
2022-08-11T22:54:23.908Z,83.41
2022-08-11T22:57:09.860Z,85.92
2022-08-11T22:59:57.683Z,85.62
2022-08-11T23:02:44.595Z,86.16
2022-08-11T23:05:32.483Z,86.49
2022-08-11T23:08:18.906Z,84.38
2022-08-11T23:11:05.369Z,84.76
2022-08-11T23:13:52.246Z,88.09
2022-08-11T23:16:40.113Z,86.67
2022-08-11T23:19:59.968Z,88.70
2022-08-11T23:22:43.841Z,87.47
2022-08-11T23:25:35.438Z,84.20
2022-08-11T23:28:21.958Z,86.06
2022-08-11T23:31:08.884Z,87.07
2022-08-11T23:33:59.317Z,90.68
2022-08-11T23:36:47.733Z,92.75
2022-08-11T23:39:34.597Z,94.97
2022-08-11T23:42:20.610Z,98.68
2022-08-11T23:45:09.545Z,96.31
2022-08-11T23:47:57.209Z,95.09
2022-08-11T23:50:45.324Z,95.26
2022-08-11T23:53:32.277Z,96.60
2022-08-11T23:56:21.716Z,96.38
2022-08-11T23:59:08.411Z,94.46
